Time;durP1;ratioP1;P1;durP2;ratioP2;P2;SDS_P1;SDS_P2;PMS_P1;PMS_P2;Temp;Humidity;BMP_temperature;BMP_pressure;BME280_temperature;BME280_humidity;BME280_pressure;Samples;Min_cycle;Max_cycle;Signal;HPM_P1;HPM_P2
2021/09/04 00:00:03;;;;;;;1.70;1.50;;;;;;;13.76;100.00;100373.56;5006593;28;21063;-56
2021/09/04 00:02:30;;;;;;;0.77;0.77;;;;;;;13.83;100.00;100367.88;5025193;28;20525;-56
2021/09/04 00:04:57;;;;;;;1.90;1.17;;;;;;;13.90;100.00;100373.88;5017065;28;20466;-57
2021/09/04 00:07:27;;;;;;;0.50;0.50;;;;;;;13.76;100.00;100370.88;5008109;28;20448;-57
2021/09/04 00:09:54;;;;;;;0.40;0.20;;;;;;;13.55;100.00;100376.13;5005635;28;20445;-56
2021/09/04 00:12:21;;;;;;;0.63;0.63;;;;;;;13.73;100.00;100374.56;5016081;28;20510;-56
2021/09/04 00:14:48;;;;;;;0.40;0.20;;;;;;;13.59;100.00;100368.91;5021984;28;20456;-57
2021/09/04 00:17:15;;;;;;;0.40;0.20;;;;;;;13.80;100.00;100373.34;5025066;28;20522;-56
2021/09/04 00:19:42;;;;;;;0.40;0.33;;;;;;;13.83;100.00;100367.88;5017574;28;20452;-56
2021/09/04 00:22:09;;;;;;;0.40;0.20;;;;;;;13.60;100.00;100365.28;5023182;28;20461;-57
2021/09/04 00:24:36;;;;;;;0.40;0.20;;;;;;;13.51;100.00;100362.97;5019180;28;20495;-57
2021/09/04 00:27:05;;;;;;;0.40;0.20;;;;;;;13.07;100.00;100368.19;5026909;28;20467;-56
2021/09/04 00:29:33;;;;;;;0.40;0.20;;;;;;;13.47;100.00;100361.38;5019851;28;20456;-57
2021/09/04 00:32:01;;;;;;;0.40;0.20;;;;;;;13.37;100.00;100359.97;5022064;28;20484;-56
2021/09/04 00:34:28;;;;;;;0.50;0.50;;;;;;;13.49;100.00;100357.69;5027550;28;20503;-56
2021/09/04 00:36:55;;;;;;;0.40;0.20;;;;;;;13.32;100.00;100354.81;5026096;28;20605;-56
2021/09/04 00:39:22;;;;;;;1.33;1.23;;;;;;;13.22;100.00;100350.75;5020708;28;20566;-56
2021/09/04 00:41:49;;;;;;;0.40;0.30;;;;;;;13.20;100.00;100345.50;5021324;28;20828;-56
2021/09/04 00:44:18;;;;;;;0.40;0.20;;;;;;;13.13;100.00;100353.75;5027144;28;20496;-56
2021/09/04 00:46:45;;;;;;;0.40;0.30;;;;;;;13.29;100.00;100353.16;5026478;28;20479;-56
2021/09/04 00:49:13;;;;;;;0.50;0.43;;;;;;;13.13;100.00;100348.41;5021076;28;20452;-56
2021/09/04 00:51:41;;;;;;;0.40;0.27;;;;;;;13.38;100.00;100351.03;5022214;28;20451;-55
2021/09/04 00:54:08;;;;;;;0.50;0.40;;;;;;;13.18;100.00;100339.34;5021759;28;20472;-56
2021/09/04 00:56:38;;;;;;;1.03;1.00;;;;;;;13.07;100.00;100354.84;5019461;28;20907;-56
2021/09/04 00:59:07;;;;;;;1.00;0.90;;;;;;;12.94;100.00;100346.44;5025750;28;20511;-56
2021/09/04 01:01:35;;;;;;;0.40;0.20;;;;;;;13.06;100.00;100353.13;5005213;28;20457;-56
2021/09/04 01:04:03;;;;;;;0.40;0.30;;;;;;;13.20;100.00;100350.81;5024999;28;20534;-56
2021/09/04 01:06:30;;;;;;;0.83;0.83;;;;;;;13.24;100.00;100354.25;5017446;28;20453;-56
2021/09/04 01:08:57;;;;;;;0.93;0.93;;;;;;;13.21;100.00;100355.22;5024162;28;20456;-56
2021/09/04 01:11:24;;;;;;;0.40;0.20;;;;;;;13.09;100.00;100353.00;5027139;28;20498;-56
2021/09/04 01:13:51;;;;;;;0.97;0.97;;;;;;;13.08;100.00;100361.94;5018091;28;20506;-56
2021/09/04 01:16:18;;;;;;;0.40;0.30;;;;;;;12.93;100.00;100351.84;4994108;28;20461;-55
2021/09/04 01:18:45;;;;;;;2.60;1.23;;;;;;;13.09;100.00;100353.00;5023956;28;20488;-56
2021/09/04 01:21:12;;;;;;;0.30;0.20;;;;;;;12.93;100.00;100359.84;5016537;28;20483;-55
2021/09/04 01:23:39;;;;;;;0.73;0.73;;;;;;;12.81;100.00;100352.28;5006315;28;20504;-51
2021/09/04 01:26:10;;;;;;;1.13;1.13;;;;;;;12.81;100.00;100349.63;5022816;28;20495;-51
2021/09/04 01:28:39;;;;;;;0.40;0.20;;;;;;;12.89;100.00;100350.22;5023517;28;20457;-51
2021/09/04 01:31:06;;;;;;;0.80;0.80;;;;;;;12.90;100.00;100342.16;5014895;28;20460;-51
2021/09/04 01:33:42;;;;;;;0.40;0.20;;;;;;;12.92;100.00;100350.09;5022545;28;21000;-52
2021/09/04 01:36:10;;;;;;;1.23;1.10;;;;;;;12.91;100.00;100353.69;5027771;28;20451;-53
2021/09/04 01:38:37;;;;;;;0.40;0.20;;;;;;;12.78;100.00;100355.06;5021368;28;20503;-51
2021/09/04 01:41:04;;;;;;;0.40;0.30;;;;;;;12.84;100.00;100353.03;5026898;28;20452;-51
2021/09/04 01:43:31;;;;;;;2.93;2.77;;;;;;;12.78;100.00;100352.41;5022483;28;20934;-51
2021/09/04 01:45:58;;;;;;;0.40;0.40;;;;;;;12.65;100.00;100349.31;5029296;28;20502;-52
2021/09/04 01:48:25;;;;;;;0.40;0.40;;;;;;;12.50;100.00;100347.19;5020828;28;20451;-51
2021/09/04 01:50:52;;;;;;;2.60;0.63;;;;;;;12.52;100.00;100350.66;5029210;28;20490;-51
2021/09/04 01:53:19;;;;;;;0.30;0.20;;;;;;;12.58;100.00;100345.09;5020529;28;20473;-51
2021/09/04 01:55:45;;;;;;;0.40;0.20;;;;;;;12.54;100.00;100351.47;5030530;28;20529;-52
2021/09/04 01:58:12;;;;;;;0.40;0.20;;;;;;;12.62;100.00;100342.28;5020375;28;20528;-52
2021/09/04 02:00:39;;;;;;;1.20;1.20;;;;;;;12.41;100.00;100337.72;5009092;28;20973;-51
2021/09/04 02:03:06;;;;;;;7.73;2.00;;;;;;;12.33;100.00;100345.09;5026465;28;20467;-51
2021/09/04 02:05:33;;;;;;;0.40;0.20;;;;;;;12.30;100.00;100337.22;5007900;28;20495;-52
2021/09/04 02:08:00;;;;;;;0.73;0.73;;;;;;;12.23;100.00;100336.56;5019365;28;20480;-52
2021/09/04 02:10:27;;;;;;;0.40;0.20;;;;;;;12.32;100.00;100343.34;5008593;28;20456;-51
2021/09/04 02:12:54;;;;;;;0.40;0.20;;;;;;;12.38;100.00;100337.84;5026490;28;20876;-51
2021/09/04 02:15:21;;;;;;;0.40;0.20;;;;;;;12.38;100.00;100345.81;5013726;28;20448;-52
2021/09/04 02:17:48;;;;;;;0.43;0.43;;;;;;;12.43;100.00;100342.06;5026105;28;20518;-51
2021/09/04 02:20:15;;;;;;;0.40;0.37;;;;;;;12.50;100.00;100345.41;5013299;28;20795;-52
2021/09/04 02:22:42;;;;;;;0.70;0.70;;;;;;;12.22;100.00;100339.28;5025794;28;20507;-52
2021/09/04 02:25:09;;;;;;;0.40;0.40;;;;;;;12.21;100.00;100329.56;5016887;28;20958;-51
2021/09/04 02:27:37;;;;;;;0.40;0.40;;;;;;;12.14;100.00;100331.56;5008703;28;20509;-52
2021/09/04 02:30:05;;;;;;;0.60;0.60;;;;;;;12.06;100.00;100331.81;5017819;28;20465;-51
2021/09/04 02:32:33;;;;;;;0.40;0.20;;;;;;;12.06;100.00;100331.81;5026014;28;20548;-52
2021/09/04 02:35:00;;;;;;;1.60;1.50;;;;;;;12.11;100.00;100329.00;5019367;28;20964;-51
2021/09/04 02:37:28;;;;;;;0.40;0.30;;;;;;;12.10;100.00;100328.13;5026362;28;21013;-52
2021/09/04 02:39:55;;;;;;;2.00;1.90;;;;;;;12.07;100.00;100327.38;5018946;28;20456;-51
2021/09/04 02:42:22;;;;;;;0.40;0.30;;;;;;;12.01;100.00;100327.56;5022943;28;20483;-51
2021/09/04 02:44:48;;;;;;;0.77;0.70;;;;;;;11.95;100.00;100328.66;5021252;28;20479;-52
2021/09/04 02:47:15;;;;;;;0.40;0.30;;;;;;;12.01;100.00;100328.44;5026165;28;20444;-51
2021/09/04 02:49:42;;;;;;;0.30;0.20;;;;;;;12.15;100.00;100331.50;5016380;28;20461;-52
2021/09/04 02:52:09;;;;;;;1.43;1.43;;;;;;;12.15;100.00;100330.63;5024883;28;20460;-51
2021/09/04 02:54:36;;;;;;;0.33;0.30;;;;;;;11.95;100.00;100333.09;5010069;28;20471;-51
2021/09/04 02:57:03;;;;;;;0.40;0.30;;;;;;;12.10;100.00;100329.91;5029750;28;20542;-51
2021/09/04 02:59:30;;;;;;;0.40;0.40;;;;;;;11.95;100.00;100333.97;5017027;28;20522;-51
2021/09/04 03:01:57;;;;;;;0.40;0.30;;;;;;;11.96;100.00;100327.72;5012486;28;20483;-51
2021/09/04 03:04:24;;;;;;;1.40;0.40;;;;;;;11.88;100.00;100329.75;5010294;28;20478;-51
2021/09/04 03:06:51;;;;;;;0.40;0.20;;;;;;;11.88;100.00;100327.09;5022119;28;20893;-51
2021/09/04 03:09:18;;;;;;;0.30;0.20;;;;;;;11.81;100.00;100328.25;5024993;28;20448;-52
2021/09/04 03:11:45;;;;;;;0.40;0.30;;;;;;;12.00;100.00;100328.47;5029256;28;20526;-52
2021/09/04 03:14:12;;;;;;;0.40;0.20;;;;;;;11.96;100.00;100322.41;5017939;28;20478;-52
2021/09/04 03:16:39;;;;;;;0.40;0.30;;;;;;;11.75;100.00;100328.38;5019228;28;20948;-51
2021/09/04 03:19:06;;;;;;;0.37;0.20;;;;;;;11.77;100.00;100321.22;5029567;28;20570;-51
2021/09/04 03:21:33;;;;;;;0.50;0.47;;;;;;;11.90;100.00;100327.91;5014320;28;20968;-52
2021/09/04 03:24:00;;;;;;;0.37;0.30;;;;;;;11.86;100.00;100324.50;5023391;28;20538;-51
2021/09/04 03:26:26;;;;;;;0.40;0.30;;;;;;;11.86;100.00;100328.94;5022354;28;20460;-51
2021/09/04 03:28:53;;;;;;;0.30;0.20;;;;;;;11.83;100.00;100321.94;5023522;28;20480;-51
2021/09/04 03:31:20;;;;;;;0.50;0.50;;;;;;;11.78;100.00;100322.94;5019011;28;20456;-53
2021/09/04 03:33:47;;;;;;;8.73;0.70;;;;;;;11.73;100.00;100322.25;5022924;28;20563;-51
2021/09/04 03:36:14;;;;;;;0.40;0.20;;;;;;;11.73;100.00;100325.78;5027765;28;20487;-51
2021/09/04 03:38:41;;;;;;;0.30;0.20;;;;;;;11.73;100.00;100327.56;5022610;28;20574;-52
2021/09/04 03:41:08;;;;;;;0.40;0.20;;;;;;;11.76;100.00;100322.13;5029072;28;20522;-53
2021/09/04 03:43:36;;;;;;;1.33;1.23;;;;;;;11.78;100.00;100325.63;5028938;28;21043;-52
2021/09/04 03:46:03;;;;;;;1.07;1.07;;;;;;;11.77;100.00;100319.41;5018207;28;20460;-51
2021/09/04 03:48:30;;;;;;;0.40;0.20;;;;;;;11.55;100.00;100321.94;5021958;28;20584;-54
2021/09/04 03:50:56;;;;;;;1.87;1.80;;;;;;;11.45;100.00;100325.78;5028331;28;20452;-51
2021/09/04 03:53:23;;;;;;;4.03;1.30;;;;;;;11.54;100.00;100325.50;5028698;28;20467;-52
2021/09/04 03:55:50;;;;;;;0.40;0.20;;;;;;;11.63;100.00;100328.78;5022812;28;20456;-51
2021/09/04 03:58:17;;;;;;;0.60;0.60;;;;;;;11.41;100.00;100320.63;5021776;28;20491;-51
2021/09/04 04:00:44;;;;;;;0.30;0.20;;;;;;;11.50;100.00;100323.84;5027545;28;20511;-52
2021/09/04 04:03:11;;;;;;;0.33;0.20;;;;;;;11.45;100.00;100330.25;5028631;28;20479;-51
2021/09/04 04:05:38;;;;;;;0.30;0.20;;;;;;;11.38;100.00;100328.72;5023391;28;20544;-52
2021/09/04 04:08:05;;;;;;;0.40;0.30;;;;;;;11.35;100.00;100331.44;5029996;28;20491;-51
2021/09/04 04:10:33;;;;;;;0.30;0.20;;;;;;;11.30;100.00;100331.59;5016880;28;20490;-51
2021/09/04 04:13:00;;;;;;;1.83;1.80;;;;;;;11.50;100.00;100334.50;5028381;28;20476;-52
2021/09/04 04:15:27;;;;;;;0.30;0.20;;;;;;;11.53;100.00;100334.44;5023950;28;20452;-51
2021/09/04 04:17:54;;;;;;;0.30;0.20;;;;;;;11.31;100.00;100340.47;5020520;28;20480;-51
2021/09/04 04:20:21;;;;;;;0.30;0.20;;;;;;;11.45;100.00;100339.09;5025335;28;20452;-53
2021/09/04 04:22:48;;;;;;;0.60;0.60;;;;;;;11.35;100.00;100344.75;5027763;28;20914;-51
2021/09/04 04:25:15;;;;;;;0.40;0.30;;;;;;;11.34;100.00;100343.88;5013948;28;20453;-51
2021/09/04 04:27:42;;;;;;;0.63;0.63;;;;;;;11.33;100.00;100343.94;5025180;28;20480;-52
2021/09/04 04:30:09;;;;;;;0.60;0.60;;;;;;;11.44;100.00;100336.50;5023861;28;20451;-51
2021/09/04 04:32:36;;;;;;;0.30;0.20;;;;;;;11.26;100.00;100335.28;5021169;28;20484;-52
2021/09/04 04:35:08;;;;;;;0.40;0.20;;;;;;;11.27;100.00;100335.22;5022964;28;20967;-51
2021/09/04 04:37:35;;;;;;;0.30;0.20;;;;;;;11.26;100.00;100333.50;5027738;28;20484;-51
2021/09/04 04:40:02;;;;;;;0.40;0.40;;;;;;;11.26;100.00;100341.47;5025882;28;20475;-51
2021/09/04 04:42:29;;;;;;;0.40;0.30;;;;;;;11.41;100.00;100331.28;4998501;28;20472;-52
2021/09/04 04:44:56;;;;;;;0.40;0.30;;;;;;;11.32;100.00;100334.22;5003817;28;20483;-52
2021/09/04 04:47:23;;;;;;;0.30;0.20;;;;;;;11.21;100.00;100337.19;5025947;28;20452;-52
2021/09/04 04:49:50;;;;;;;0.40;0.20;;;;;;;11.34;100.00;100327.91;5026487;28;20487;-52
2021/09/04 04:52:17;;;;;;;0.43;0.40;;;;;;;11.23;100.00;100336.22;5007303;28;20488;-51
2021/09/04 04:54:43;;;;;;;0.30;0.20;;;;;;;11.22;100.00;100334.47;5017740;28;20864;-51
2021/09/04 04:57:10;;;;;;;0.30;0.20;;;;;;;11.13;100.00;100339.22;5019052;28;20460;-51
2021/09/04 04:59:37;;;;;;;0.40;0.30;;;;;;;11.34;100.00;100330.56;5028126;28;20509;-51
2021/09/04 05:02:04;;;;;;;0.30;0.20;;;;;;;11.21;100.00;100337.19;5015413;28;20464;-51
2021/09/04 05:04:31;;;;;;;1.57;1.27;;;;;;;11.30;100.00;100341.38;5006452;28;20454;-52
2021/09/04 05:06:58;;;;;;;0.30;0.20;;;;;;;11.17;100.00;100344.41;5026560;28;20973;-51
2021/09/04 05:09:27;;;;;;;0.40;0.20;;;;;;;11.37;100.00;100343.78;5026629;28;20498;-51
2021/09/04 05:11:54;;;;;;;0.30;0.20;;;;;;;11.19;100.00;100344.34;5024624;28;20505;-52
2021/09/04 05:14:21;;;;;;;0.40;0.27;;;;;;;11.45;100.00;100349.75;5015689;28;20895;-52
2021/09/04 05:16:48;;;;;;;0.40;0.20;;;;;;;11.40;100.00;100351.69;5009863;28;20528;-51
2021/09/04 05:19:15;;;;;;;2.80;2.73;;;;;;;12.06;100.00;100357.56;5001715;28;20859;-51
2021/09/04 05:21:41;;;;;;;0.30;0.30;;;;;;;12.44;100.00;100346.47;5006316;28;20457;-51
2021/09/04 05:24:08;;;;;;;1.57;0.93;;;;;;;12.90;100.00;100346.63;5015284;28;20481;-52
2021/09/04 05:26:35;;;;;;;0.40;0.30;;;;;;;13.02;99.21;100351.50;5033692;28;20506;-51
2021/09/04 05:29:02;;;;;;;0.67;0.67;;;;;;;12.93;100.00;100351.84;5020150;28;20819;-51
2021/09/04 05:31:29;;;;;;;0.30;0.20;;;;;;;13.27;99.13;100354.97;4994962;28;20453;-51
2021/09/04 05:33:57;;;;;;;0.43;0.43;;;;;;;13.48;98.04;100355.09;5009690;28;20480;-51
2021/09/04 05:36:24;;;;;;;1.40;1.03;;;;;;;13.56;98.80;100345.81;5019627;28;20479;-51
2021/09/04 05:38:53;;;;;;;0.30;0.20;;;;;;;13.78;98.30;100358.34;5029358;28;20969;-52
2021/09/04 05:41:20;;;;;;;0.30;0.20;;;;;;;13.93;98.37;100355.03;5022837;28;20456;-51
2021/09/04 05:43:46;;;;;;;2.00;1.90;;;;;;;14.16;97.78;100348.72;5018547;28;20476;-51
2021/09/04 05:46:13;;;;;;;0.40;0.20;;;;;;;14.11;98.16;100348.91;5023707;28;20451;-51
2021/09/04 05:48:40;;;;;;;1.70;0.60;;;;;;;14.05;99.56;100345.63;5021044;28;20458;-51
2021/09/04 05:51:07;;;;;;;0.30;0.20;;;;;;;13.98;100.00;100344.13;5020493;28;20872;-52
2021/09/04 05:53:34;;;;;;;0.30;0.20;;;;;;;13.80;99.97;100351.13;5018448;28;20480;-51
2021/09/04 05:56:01;;;;;;;0.40;0.30;;;;;;;13.56;100.00;100345.81;4998787;28;20994;-51
2021/09/04 05:58:28;;;;;;;0.30;0.20;;;;;;;13.28;100.00;100353.19;5023297;28;20506;-52
2021/09/04 06:00:55;;;;;;;0.40;0.20;;;;;;;13.33;100.00;100353.91;5019601;28;20961;-51
2021/09/04 06:03:22;;;;;;;0.40;0.30;;;;;;;13.46;100.00;100356.97;5021016;28;20471;-51
2021/09/04 06:05:49;;;;;;;0.40;0.40;;;;;;;13.59;100.00;100352.88;5007230;28;20795;-51
2021/09/04 06:08:16;;;;;;;0.40;0.30;;;;;;;13.60;100.00;100351.94;5027166;28;20472;-51
2021/09/04 06:10:43;;;;;;;0.40;0.20;;;;;;;13.70;100.00;100347.94;5013839;28;20984;-51
2021/09/04 06:13:10;;;;;;;0.30;0.20;;;;;;;13.79;100.00;100349.38;5000582;28;20530;-51
2021/09/04 06:15:37;;;;;;;1.97;1.90;;;;;;;14.01;100.00;100354.72;5011168;28;20508;-51
2021/09/04 06:18:04;;;;;;;0.40;0.20;;;;;;;14.04;100.00;100351.91;5024265;28;20493;-51
2021/09/04 06:20:31;;;;;;;0.80;0.80;;;;;;;13.65;100.00;100347.28;5014082;28;20483;-51
2021/09/04 06:22:58;;;;;;;0.47;0.47;;;;;;;13.79;100.00;100352.91;5013460;28;20515;-51
2021/09/04 06:25:25;;;;;;;0.30;0.20;;;;;;;13.99;100.00;100354.78;5022811;28;20483;-52
2021/09/04 06:27:52;;;;;;;0.40;0.30;;;;;;;14.15;100.00;100352.34;5024877;28;20951;-51
2021/09/04 06:30:19;;;;;;;0.40;0.40;;;;;;;14.01;100.00;100352.91;5002149;28;20448;-51
2021/09/04 06:32:46;;;;;;;0.40;0.20;;;;;;;13.97;100.00;100351.28;5024912;28;20514;-51
2021/09/04 06:35:13;;;;;;;0.40;0.30;;;;;;;14.23;100.00;100355.53;5021582;28;20519;-52
2021/09/04 06:37:39;;;;;;;0.40;0.40;;;;;;;14.20;100.00;100358.34;5025399;28;21147;-51
2021/09/04 06:40:06;;;;;;;0.40;0.20;;;;;;;14.34;100.00;100349.75;5026294;28;20478;-51
2021/09/04 06:42:34;;;;;;;1.53;1.43;;;;;;;14.28;100.00;100353.56;5020467;28;20498;-51
2021/09/04 06:45:00;;;;;;;2.40;1.47;;;;;;;14.31;100.00;100356.09;5021954;28;20544;-51
2021/09/04 06:47:28;;;;;;;0.40;0.30;;;;;;;14.34;100.00;100363.97;5026728;28;20452;-52
2021/09/04 06:49:55;;;;;;;0.40;0.20;;;;;;;14.57;100.00;100354.13;4994895;28;20486;-51
2021/09/04 06:52:22;;;;;;;1.37;1.37;;;;;;;15.00;100.00;100353.06;5028194;28;20483;-52
2021/09/04 06:54:49;;;;;;;0.40;0.20;;;;;;;15.16;100.00;100351.41;5019935;28;20502;-52
2021/09/04 06:57:15;;;;;;;0.73;0.73;;;;;;;15.10;100.00;100352.59;5026659;28;20566;-52
2021/09/04 06:59:42;;;;;;;0.70;0.70;;;;;;;15.53;100.00;100349.69;5015800;28;20490;-51
2021/09/04 07:02:09;;;;;;;4.43;1.73;;;;;;;15.19;100.00;100348.59;5007111;28;20490;-52
2021/09/04 07:04:36;;;;;;;2.90;0.63;;;;;;;15.25;100.00;100342.09;5019778;28;20477;-51
2021/09/04 07:07:04;;;;;;;0.40;0.30;;;;;;;15.21;100.00;100345.84;5000840;28;20507;-52
2021/09/04 07:09:32;;;;;;;0.43;0.37;;;;;;;15.46;100.00;100348.25;5002161;28;20485;-51
2021/09/04 07:12:00;;;;;;;5.90;2.10;;;;;;;15.75;100.00;100341.50;5025876;28;21350;-51
2021/09/04 07:14:27;;;;;;;0.40;0.20;;;;;;;16.14;100.00;100346.69;5013735;28;20473;-51
2021/09/04 07:16:54;;;;;;;0.40;0.20;;;;;;;15.79;100.00;100354.69;5020691;28;20830;-51
2021/09/04 07:19:21;;;;;;;1.40;1.30;;;;;;;15.56;100.00;100346.88;5018865;28;20492;-52
2021/09/04 07:21:48;;;;;;;0.73;0.73;;;;;;;15.77;100.00;100353.91;5017760;28;20459;-51
2021/09/04 07:24:14;;;;;;;0.40;0.20;;;;;;;15.89;100.00;100344.38;5038726;22;20499;-79
2021/09/04 07:26:41;;;;;;;0.60;0.60;;;;;;;16.04;100.00;100337.41;5048306;28;20987;-79
2021/09/04 07:29:11;;;;;;;0.77;0.77;;;;;;;16.28;100.00;100346.84;5048817;28;20455;-79
2021/09/04 07:31:39;;;;;;;0.40;0.20;;;;;;;16.56;99.92;100349.84;5019311;28;20531;-79
2021/09/04 07:34:06;;;;;;;0.50;0.50;;;;;;;16.56;99.89;100354.34;5034539;28;20466;-79
2021/09/04 07:36:33;;;;;;;0.40;0.20;;;;;;;16.66;98.52;100357.44;5031862;28;20456;-79
2021/09/04 07:39:00;;;;;;;0.50;0.50;;;;;;;16.65;99.11;100350.31;5055121;28;20499;-79
2021/09/04 07:41:27;;;;;;;0.90;0.90;;;;;;;16.88;98.45;100352.69;5032195;28;20450;-79
2021/09/04 07:43:54;;;;;;;0.40;0.20;;;;;;;16.86;98.00;100360.84;5057386;28;20882;-80
2021/09/04 07:46:21;;;;;;;0.40;0.20;;;;;;;16.95;97.87;100354.09;5049493;28;20454;-79
2021/09/04 07:48:49;;;;;;;0.60;0.60;;;;;;;17.00;99.12;100357.41;5059750;28;20481;-79
2021/09/04 07:51:16;;;;;;;0.40;0.20;;;;;;;17.07;98.14;100353.44;5030570;28;20451;-79
2021/09/04 07:53:43;;;;;;;0.40;0.20;;;;;;;17.35;96.75;100355.47;5027065;28;20473;-79
2021/09/04 07:56:10;;;;;;;0.40;0.20;;;;;;;17.68;97.03;100359.88;5029845;28;20439;-79
2021/09/04 07:58:37;;;;;;;2.40;1.37;;;;;;;17.84;94.69;100357.25;5041143;28;20528;-79
2021/09/04 08:01:04;;;;;;;0.50;0.40;;;;;;;17.95;94.42;100350.28;5048076;28;20459;-80
2021/09/04 08:03:31;;;;;;;0.83;0.83;;;;;;;18.22;93.54;100357.69;5051845;28;20452;-79
2021/09/04 08:05:59;;;;;;;0.70;0.50;;;;;;;17.91;93.76;100358.63;5047637;28;20496;-79
2021/09/04 08:08:26;;;;;;;0.50;0.30;;;;;;;18.06;93.20;100349.66;5056621;28;20458;-79
2021/09/04 08:10:53;;;;;;;0.60;0.50;;;;;;;18.43;92.54;100347.47;5057248;28;20993;-79
2021/09/04 08:13:19;;;;;;;0.40;0.40;;;;;;;18.42;92.43;100353.81;5038773;28;20487;-79
2021/09/04 08:15:48;;;;;;;0.40;0.20;;;;;;;18.35;92.42;100356.88;5051226;28;20982;-80
2021/09/04 08:18:15;;;;;;;0.93;0.63;;;;;;;18.87;91.14;100358.25;5036013;28;20486;-79
2021/09/04 08:20:43;;;;;;;1.00;1.00;;;;;;;19.04;89.71;100355.38;5029663;28;20485;-79
2021/09/04 08:23:10;;;;;;;1.53;1.30;;;;;;;18.86;90.45;100362.78;5059378;28;20520;-80
2021/09/04 08:25:38;;;;;;;0.40;0.20;;;;;;;19.19;90.19;100361.66;5043470;28;20466;-79
2021/09/04 08:28:07;;;;;;;0.40;0.20;;;;;;;19.19;90.97;100357.13;5035493;28;20451;-80
2021/09/04 08:30:35;;;;;;;0.40;0.30;;;;;;;19.41;89.58;100348.53;5022327;28;21016;-80
2021/09/04 08:33:03;;;;;;;0.50;0.50;;;;;;;19.57;88.51;100342.19;5048247;28;20489;-80
2021/09/04 08:35:31;;;;;;;0.50;0.30;;;;;;;19.66;89.39;100357.78;5047869;28;20468;-79
2021/09/04 08:37:59;;;;;;;0.67;0.67;;;;;;;19.69;88.43;100361.13;5047519;28;20872;-80
2021/09/04 08:40:26;;;;;;;1.03;1.03;;;;;;;19.65;88.12;100365.00;5058880;28;20494;-79
2021/09/04 08:42:53;;;;;;;2.87;0.57;;;;;;;19.76;87.97;100359.78;5042012;28;20985;-79
2021/09/04 08:45:20;;;;;;;0.50;0.40;;;;;;;20.14;86.78;100359.03;5044893;28;20479;-79
2021/09/04 08:47:49;;;;;;;0.60;0.50;;;;;;;20.03;87.74;100350.81;5030838;28;20455;-79
2021/09/04 08:50:17;;;;;;;1.03;0.60;;;;;;;20.44;86.48;100339.09;5060648;28;20446;-79
2021/09/04 08:52:44;;;;;;;0.40;0.20;;;;;;;20.37;86.06;100339.47;5059857;28;20470;-79
2021/09/04 08:55:11;;;;;;;0.67;0.67;;;;;;;20.75;85.20;100344.09;5060036;28;20545;-79
2021/09/04 08:57:38;;;;;;;0.53;0.47;;;;;;;20.88;85.01;100347.66;5032698;28;20456;-80
2021/09/04 09:00:05;;;;;;;0.40;0.20;;;;;;;21.32;84.45;100337.38;5056088;28;20491;-79
2021/09/04 09:02:33;;;;;;;1.23;1.23;;;;;;;21.43;84.47;100351.84;5060601;28;20455;-79
2021/09/04 09:05:09;;;;;;;0.60;0.40;;;;;;;21.45;82.06;100351.75;5042931;28;20983;-79
2021/09/04 09:07:44;;;;;;;0.40;0.30;;;;;;;21.24;82.62;100349.59;5050286;28;20454;-79
2021/09/04 09:10:20;;;;;;;0.40;0.30;;;;;;;21.28;83.31;100348.44;5041813;28;20454;-80
2021/09/04 09:12:48;;;;;;;0.40;0.20;;;;;;;21.53;82.78;100341.25;5041973;28;21056;-79
2021/09/04 09:15:26;;;;;;;0.80;0.80;;;;;;;21.92;81.11;100344.66;5028453;28;20503;-79
2021/09/04 09:17:59;;;;;;;1.17;0.80;;;;;;;22.06;81.74;100336.38;5033493;28;20457;-79
2021/09/04 09:20:26;;;;;;;0.50;0.40;;;;;;;22.09;81.05;100341.59;5038710;28;20487;-79
2021/09/04 09:22:53;;;;;;;0.40;0.30;;;;;;;22.67;79.35;100342.53;5050859;28;20451;-79
2021/09/04 09:25:21;;;;;;;0.40;0.30;;;;;;;22.26;79.97;100329.47;5029988;28;20478;-81
2021/09/04 09:28:26;;;;;;;0.50;0.50;;;;;;;22.67;79.16;100337.97;5057984;28;20450;-79
2021/09/04 09:30:59;;;;;;;0.50;0.30;;;;;;;22.88;78.03;100340.00;4951960;29;20486;-79
2021/09/04 09:33:28;;;;;;;1.03;1.03;;;;;;;22.67;78.65;100337.13;4941388;29;20448;-79
2021/09/04 09:35:56;;;;;;;1.03;1.03;;;;;;;23.01;79.41;100332.63;5011201;28;20508;-79
2021/09/04 09:38:27;;;;;;;0.40;0.30;;;;;;;23.24;78.21;100331.66;5057791;28;20443;-79
2021/09/04 09:40:55;;;;;;;0.60;0.60;;;;;;;23.33;77.87;100330.91;5039414;28;20943;-79
2021/09/04 09:43:24;;;;;;;1.13;1.13;;;;;;;23.28;76.76;100327.69;5049375;28;20812;-80
2021/09/04 09:45:51;;;;;;;0.50;0.40;;;;;;;23.29;76.19;100321.28;5034001;28;20898;-79
2021/09/04 09:48:23;;;;;;;0.40;0.30;;;;;;;23.34;75.07;100323.63;5031717;28;20453;-79
2021/09/04 09:50:52;;;;;;;0.40;0.20;;;;;;;23.20;76.64;100326.59;5051833;28;20872;-79
2021/09/04 09:53:20;;;;;;;0.73;0.73;;;;;;;23.43;75.19;100328.28;5013142;28;20451;-79
2021/09/04 09:55:51;;;;;;;0.60;0.60;;;;;;;23.42;74.32;100315.72;5056911;28;20491;-80
2021/09/04 09:58:19;;;;;;;0.57;0.50;;;;;;;23.83;74.47;100328.63;5054567;28;20462;-80
2021/09/04 10:00:51;;;;;;;0.50;0.50;;;;;;;23.87;74.48;100321.13;5030875;28;20492;-80
2021/09/04 10:03:23;;;;;;;1.10;0.53;;;;;;;23.84;69.71;100311.34;5026940;28;20911;-79
2021/09/04 10:05:50;;;;;;;3.90;0.50;;;;;;;23.87;68.74;100321.13;5031348;28;20452;-79
2021/09/04 10:08:20;;;;;;;0.50;0.40;;;;;;;24.17;68.18;100320.38;5038512;28;20430;-79
2021/09/04 10:10:48;;;;;;;3.33;0.50;;;;;;;24.05;67.26;100319.56;5029179;28;20454;-79
2021/09/04 10:13:16;;;;;;;0.60;0.60;;;;;;;24.08;66.74;100322.00;5043779;28;20464;-79
2021/09/04 10:15:48;;;;;;;1.13;0.50;;;;;;;24.19;68.01;100332.84;5020628;28;20450;-80
2021/09/04 10:18:20;;;;;;;0.60;0.53;;;;;;;23.99;68.03;100305.66;5054718;28;20446;-79
2021/09/04 10:21:00;;;;;;;0.97;0.97;;;;;;;24.34;66.81;100308.09;5026595;28;20458;-80
2021/09/04 10:23:30;;;;;;;0.40;0.30;;;;;;;24.57;66.99;100314.28;5017775;28;20490;-79
2021/09/04 10:26:26;;;;;;;0.40;0.30;;;;;;;24.49;65.54;100315.78;5039386;28;20443;-80
2021/09/04 10:29:00;;;;;;;0.50;0.30;;;;;;;24.48;65.24;100305.91;5038577;28;20790;-79
2021/09/04 10:31:46;;;;;;;0.50;0.40;;;;;;;24.74;65.22;100310.94;5032450;28;20451;-80
2021/09/04 10:34:23;;;;;;;0.43;0.27;;;;;;;24.77;64.37;100302.53;5029626;28;20459;-79
2021/09/04 10:37:02;;;;;;;0.50;0.40;;;;;;;24.68;64.56;100295.19;5059450;28;20442;-79
2021/09/04 10:40:07;;;;;;;0.50;0.40;;;;;;;24.99;64.01;100296.91;5059470;28;20508;-79
2021/09/04 10:42:38;;;;;;;0.50;0.40;;;;;;;25.05;64.99;100301.84;5060269;28;20421;-80
2021/09/04 10:45:17;;;;;;;0.60;0.60;;;;;;;24.95;61.53;100297.34;5059513;22;20521;-57
2021/09/04 10:47:51;;;;;;;0.40;0.30;;;;;;;25.38;62.58;100289.81;5040155;28;20931;-57
2021/09/04 10:50:22;;;;;;;4.30;2.87;;;;;;;25.24;61.52;100289.34;5052184;28;20502;-57
2021/09/04 10:52:49;;;;;;;0.50;0.30;;;;;;;25.44;60.50;100290.25;5034172;28;20417;-56
2021/09/04 10:55:22;;;;;;;2.63;1.70;;;;;;;25.32;61.22;100284.91;5032089;28;20820;-57
2021/09/04 10:57:51;;;;;;;1.80;1.70;;;;;;;25.34;62.04;100282.03;5031987;28;21008;-57
2021/09/04 11:00:18;;;;;;;2.23;0.77;;;;;;;25.33;60.69;100278.44;5032719;28;21063;-57
2021/09/04 11:03:09;;;;;;;0.60;0.60;;;;;;;25.23;59.67;100268.56;5032011;28;20444;-56
2021/09/04 11:05:56;;;;;;;1.23;0.93;;;;;;;25.28;58.90;100278.03;5016052;28;20449;-57
2021/09/04 11:08:43;;;;;;;0.60;0.60;;;;;;;25.31;58.88;100279.59;5012227;28;20447;-57
2021/09/04 11:11:15;;;;;;;1.90;1.00;;;;;;;25.60;58.72;100275.09;5031701;28;20852;-57
2021/09/04 11:13:53;;;;;;;0.50;0.30;;;;;;;25.56;57.95;100272.78;5034404;28;20521;-57
2021/09/04 11:16:38;;;;;;;0.40;0.30;;;;;;;25.57;59.43;100271.78;5035142;28;20487;-57
2021/09/04 11:19:14;;;;;;;0.93;0.83;;;;;;;25.04;59.88;100270.19;5027634;28;20451;-57
2021/09/04 11:21:54;;;;;;;0.50;0.50;;;;;;;25.14;60.02;100270.25;5022676;28;20517;-57
2021/09/04 11:24:29;;;;;;;0.97;0.97;;;;;;;24.99;59.94;100267.00;5035379;28;20474;-57